createdAt,value
2023-03-12T00:01:10.779Z,86.60
2023-03-12T00:03:40.385Z,87.89
2023-03-12T00:06:30.263Z,87.42
2023-03-12T00:08:58.272Z,89.61
2023-03-12T00:11:24.974Z,86.81
2023-03-12T00:13:52.896Z,85.15
2023-03-12T00:16:20.315Z,86.35
2023-03-12T00:18:52.300Z,88.67
2023-03-12T00:21:22.394Z,92.52
2023-03-12T00:23:49.708Z,95.06
2023-03-12T00:26:17.274Z,94.19
2023-03-12T00:28:44.155Z,93.96
2023-03-12T00:31:24.391Z,94.20
2023-03-12T00:33:55.014Z,95.86
2023-03-12T00:36:24.906Z,95.45
2023-03-12T00:38:52.595Z,94.26
2023-03-12T00:41:22.278Z,91.74
2023-03-12T00:43:50.225Z,90.85
2023-03-12T00:46:17.608Z,89.63
2023-03-12T00:48:44.819Z,88.79
2023-03-12T00:51:12.389Z,90.51
2023-03-12T00:53:39.555Z,88.94
2023-03-12T00:56:07.039Z,90.67
2023-03-12T00:58:33.908Z,89.00
2023-03-12T01:01:00.842Z,90.43
2023-03-12T01:03:27.892Z,89.78
2023-03-12T01:05:57.399Z,90.56
2023-03-12T01:08:24.525Z,90.81
2023-03-12T01:10:52.150Z,92.43
2023-03-12T01:13:19.036Z,92.21
2023-03-12T01:15:45.857Z,93.54
2023-03-12T01:18:12.629Z,94.46
2023-03-12T01:20:40.795Z,93.98
2023-03-12T01:23:07.880Z,96.21
2023-03-12T01:25:35.518Z,94.93
2023-03-12T01:28:02.456Z,96.83
2023-03-12T01:30:29.779Z,95.97
2023-03-12T01:32:56.613Z,98.98
2023-03-12T01:35:23.596Z,99.51
2023-03-12T01:37:50.461Z,100.00
2023-03-12T01:40:19.416Z,100.00
2023-03-12T01:42:56.836Z,100.00
2023-03-12T01:45:51.596Z,100.00
2023-03-12T01:48:19.612Z,100.00
2023-03-12T01:50:47.267Z,100.00
2023-03-12T01:53:14.105Z,100.00
2023-03-12T01:55:41.699Z,100.00
2023-03-12T01:58:09.600Z,100.00
2023-03-12T02:00:36.361Z,100.00
2023-03-12T02:03:06.762Z,100.00
2023-03-12T02:05:39.170Z,100.00
2023-03-12T02:08:05.931Z,100.00
2023-03-12T02:10:32.668Z,100.00
2023-03-12T02:12:59.333Z,100.00
2023-03-12T02:15:26.098Z,100.00
2023-03-12T02:17:54.184Z,100.00
2023-03-12T02:20:32.439Z,100.00
2023-03-12T02:23:09.308Z,100.00
2023-03-12T02:25:39.491Z,100.00
2023-03-12T02:28:10.108Z,100.00
2023-03-12T02:30:39.775Z,100.00
2023-03-12T02:33:08.731Z,100.00
2023-03-12T02:35:36.641Z,100.00
2023-03-12T02:38:04.231Z,100.00
2023-03-12T02:40:37.656Z,100.00
2023-03-12T02:43:06.679Z,100.00
2023-03-12T02:45:34.152Z,100.00
2023-03-12T02:48:02.160Z,100.00
2023-03-12T02:50:28.828Z,100.00
2023-03-12T02:52:55.701Z,100.00
2023-03-12T02:55:22.706Z,100.00
2023-03-12T02:57:49.434Z,100.00
2023-03-12T03:00:16.906Z,100.00
2023-03-12T03:02:48.227Z,100.00
2023-03-12T03:05:15.360Z,100.00
2023-03-12T03:07:42.211Z,100.00
2023-03-12T03:10:09.955Z,100.00
2023-03-12T03:12:37.486Z,100.00
2023-03-12T03:15:06.256Z,100.00
2023-03-12T03:17:33.337Z,100.00
2023-03-12T03:20:00.170Z,100.00
2023-03-12T03:22:27.124Z,100.00
2023-03-12T03:24:54.230Z,100.00
2023-03-12T03:27:21.010Z,100.00
2023-03-12T03:32:14.998Z,100.00
2023-03-12T03:34:42.023Z,100.00
2023-03-12T03:37:08.734Z,100.00
2023-03-12T03:39:36.043Z,100.00
2023-03-12T03:42:03.177Z,100.00
2023-03-12T03:44:32.700Z,100.00
2023-03-12T03:47:00.591Z,100.00
2023-03-12T03:49:27.287Z,100.00
2023-03-12T03:51:54.198Z,100.00
2023-03-12T03:54:31.236Z,100.00
2023-03-12T03:56:58.532Z,100.00
2023-03-12T03:59:25.246Z,100.00
2023-03-12T04:01:52.359Z,100.00
2023-03-12T04:04:19.175Z,100.00
2023-03-12T04:06:45.992Z,100.00
2023-03-12T04:09:13.725Z,100.00
2023-03-12T04:11:40.713Z,100.00
2023-03-12T04:14:08.813Z,100.00
2023-03-12T04:16:38.209Z,100.00
2023-03-12T04:19:05.278Z,100.00
2023-03-12T04:21:32.067Z,100.00
2023-03-12T04:23:58.919Z,100.00
2023-03-12T04:26:29.638Z,100.00
2023-03-12T04:28:57.336Z,100.00
2023-03-12T04:31:24.961Z,100.00
2023-03-12T04:33:51.663Z,100.00
2023-03-12T04:36:21.973Z,100.00
2023-03-12T04:38:50.418Z,100.00
2023-03-12T04:41:20.867Z,100.00
2023-03-12T04:43:52.391Z,100.00
2023-03-12T04:46:20.503Z,100.00
2023-03-12T04:48:47.286Z,100.00
2023-03-12T04:51:15.013Z,100.00
2023-03-12T04:53:42.178Z,100.00
2023-03-12T04:56:11.616Z,100.00
2023-03-12T04:58:39.179Z,100.00
2023-03-12T05:01:06.559Z,100.00
2023-03-12T05:03:33.409Z,100.00
2023-03-12T05:06:00.779Z,100.00
2023-03-12T05:08:27.654Z,100.00
2023-03-12T05:10:55.213Z,100.00
2023-03-12T05:13:22.842Z,100.00
2023-03-12T05:15:53.473Z,100.00
2023-03-12T05:18:21.548Z,100.00
2023-03-12T05:21:01.675Z,100.00
2023-03-12T05:23:29.227Z,100.00
2023-03-12T05:25:57.258Z,100.00
2023-03-12T05:28:27.986Z,100.00
2023-03-12T05:30:59.118Z,100.00
2023-03-12T05:33:27.645Z,100.00
2023-03-12T05:35:54.883Z,100.00
2023-03-12T05:38:22.065Z,100.00
2023-03-12T05:40:57.254Z,100.00
2023-03-12T05:43:24.354Z,100.00
2023-03-12T05:45:52.355Z,100.00
2023-03-12T05:48:19.409Z,100.00
2023-03-12T05:50:46.438Z,100.00
2023-03-12T05:53:13.272Z,100.00
2023-03-12T05:55:40.802Z,100.00
2023-03-12T05:58:08.430Z,100.00
2023-03-12T06:00:38.119Z,100.00
2023-03-12T06:03:06.681Z,100.00
2023-03-12T06:05:35.557Z,100.00
2023-03-12T06:08:03.763Z,100.00
2023-03-12T06:10:30.926Z,100.00
2023-03-12T06:12:58.114Z,100.00
2023-03-12T06:15:24.831Z,100.00
2023-03-12T06:17:51.640Z,100.00
2023-03-12T06:20:18.481Z,100.00
2023-03-12T06:22:45.177Z,100.00
2023-03-12T06:25:11.961Z,100.00
2023-03-12T06:27:38.782Z,100.00
2023-03-12T06:30:06.125Z,100.00
2023-03-12T06:32:33.059Z,100.00
2023-03-12T06:35:04.447Z,100.00
2023-03-12T06:37:31.493Z,100.00
2023-03-12T06:39:58.197Z,100.00
2023-03-12T06:42:26.554Z,100.00
2023-03-12T06:44:53.841Z,100.00
2023-03-12T06:47:20.687Z,100.00
2023-03-12T06:49:47.483Z,100.00
2023-03-12T06:52:14.222Z,100.00
2023-03-12T06:54:41.287Z,100.00
2023-03-12T06:57:07.959Z,100.00
2023-03-12T06:59:34.791Z,100.00
2023-03-12T07:02:01.963Z,100.00
2023-03-12T07:04:28.787Z,100.00
2023-03-12T07:06:55.535Z,100.00
2023-03-12T07:09:22.350Z,100.00
2023-03-12T07:11:49.913Z,100.00
2023-03-12T07:14:16.610Z,100.00
2023-03-12T07:16:43.603Z,100.00
2023-03-12T07:19:10.445Z,100.00
2023-03-12T07:21:37.474Z,100.00
2023-03-12T07:24:07.111Z,100.00
2023-03-12T07:26:35.405Z,100.00
2023-03-12T07:29:03.385Z,100.00
2023-03-12T07:31:30.186Z,100.00
2023-03-12T07:33:57.203Z,100.00
2023-03-12T07:36:24.108Z,100.00
2023-03-12T07:38:50.877Z,100.00
2023-03-12T07:41:17.572Z,100.00
2023-03-12T07:43:44.558Z,100.00
2023-03-12T07:46:11.401Z,100.00
2023-03-12T07:48:38.840Z,100.00
2023-03-12T07:51:06.051Z,100.00
2023-03-12T07:53:32.922Z,100.00
2023-03-12T07:55:59.769Z,100.00
2023-03-12T07:58:26.630Z,100.00
2023-03-12T08:00:55.840Z,100.00
2023-03-12T08:03:22.804Z,100.00
2023-03-12T08:05:59.999Z,100.00
2023-03-12T08:08:27.436Z,100.00
2023-03-12T08:10:54.282Z,100.00
2023-03-12T08:13:23.031Z,100.00
2023-03-12T08:15:51.528Z,100.00
2023-03-12T08:18:18.989Z,100.00
2023-03-12T08:20:46.724Z,100.00
2023-03-12T08:23:13.586Z,100.00
2023-03-12T08:25:40.341Z,100.00
2023-03-12T08:28:07.022Z,100.00
2023-03-12T08:30:34.498Z,100.00
2023-03-12T08:33:01.329Z,100.00
2023-03-12T08:35:28.677Z,100.00
2023-03-12T08:37:57.012Z,100.00
2023-03-12T08:40:24.532Z,100.00
2023-03-12T08:42:51.273Z,100.00
2023-03-12T08:45:18.194Z,100.00
2023-03-12T08:47:45.122Z,100.00
2023-03-12T08:50:12.881Z,100.00
2023-03-12T08:52:40.917Z,100.00
2023-03-12T08:55:08.039Z,100.00
2023-03-12T08:57:34.784Z,100.00
2023-03-12T09:00:01.944Z,100.00
2023-03-12T09:02:28.697Z,100.00
2023-03-12T09:04:55.542Z,100.00
2023-03-12T09:07:26.064Z,100.00
2023-03-12T09:09:55.093Z,100.00
2023-03-12T09:12:22.098Z,100.00
2023-03-12T09:15:02.854Z,100.00
2023-03-12T09:17:30.560Z,100.00
2023-03-12T09:19:57.234Z,100.00
2023-03-12T09:22:23.954Z,100.00
2023-03-12T09:24:50.983Z,100.00
2023-03-12T09:27:17.809Z,100.00
2023-03-12T09:29:57.231Z,100.00
2023-03-12T09:32:27.499Z,100.00
2023-03-12T09:34:54.632Z,100.00
2023-03-12T09:37:23.943Z,100.00
2023-03-12T09:39:51.578Z,100.00
2023-03-12T09:42:32.013Z,100.00
2023-03-12T09:45:00.566Z,100.00
2023-03-12T09:47:30.367Z,100.00
2023-03-12T09:50:17.344Z,100.00
2023-03-12T09:53:23.036Z,100.00
2023-03-12T09:55:51.370Z,100.00
2023-03-12T09:58:34.823Z,100.00
2023-03-12T10:01:10.510Z,100.00
2023-03-12T10:03:47.697Z,100.00
2023-03-12T10:06:23.303Z,100.00
2023-03-12T10:09:24.228Z,100.00
2023-03-12T10:12:10.532Z,100.00
2023-03-12T10:15:15.313Z,100.00
2023-03-12T10:17:48.186Z,100.00
2023-03-12T10:20:33.308Z,100.00
2023-03-12T10:23:20.134Z,100.00
2023-03-12T10:26:16.816Z,100.00
2023-03-12T10:29:03.649Z,100.00
2023-03-12T10:31:37.798Z,100.00
2023-03-12T10:34:31.174Z,100.00
2023-03-12T10:37:05.417Z,100.00
2023-03-12T10:39:35.237Z,100.00
2023-03-12T10:42:02.465Z,100.00
2023-03-12T10:44:29.519Z,100.00
2023-03-12T10:47:00.963Z,100.00
2023-03-12T10:49:31.318Z,100.00
2023-03-12T10:51:59.400Z,100.00
2023-03-12T10:54:31.158Z,100.00
2023-03-12T10:56:58.266Z,100.00
2023-03-12T10:59:30.969Z,100.00
2023-03-12T11:01:58.480Z,100.00
2023-03-12T11:04:28.809Z,100.00
2023-03-12T11:07:12.216Z,100.00
2023-03-12T11:09:39.003Z,100.00
2023-03-12T11:12:26.061Z,100.00
2023-03-12T11:14:53.327Z,100.00
2023-03-12T11:17:28.923Z,100.00
2023-03-12T11:19:56.022Z,100.00
2023-03-12T11:22:34.832Z,100.00
2023-03-12T11:25:06.792Z,100.00
2023-03-12T11:28:00.411Z,100.00
2023-03-12T11:30:35.876Z,100.00
2023-03-12T11:33:04.057Z,100.00
2023-03-12T11:36:05.752Z,100.00
2023-03-12T11:38:40.364Z,100.00
2023-03-12T11:41:30.715Z,100.00
2023-03-12T11:44:02.083Z,100.00
2023-03-12T11:46:51.349Z,100.00
2023-03-12T11:49:28.806Z,100.00
2023-03-12T11:52:04.572Z,100.00
2023-03-12T11:55:02.016Z,100.00
2023-03-12T11:57:40.731Z,100.00
2023-03-12T12:00:21.748Z,100.00
2023-03-12T12:03:02.682Z,100.00
2023-03-12T12:05:41.093Z,100.00
2023-03-12T12:08:24.614Z,100.00
2023-03-12T12:11:14.506Z,100.00
2023-03-12T12:13:44.920Z,100.00
2023-03-12T12:16:24.445Z,100.00
2023-03-12T12:19:30.872Z,100.00
2023-03-12T12:22:18.644Z,100.00
2023-03-12T12:25:10.743Z,100.00
2023-03-12T12:27:45.749Z,100.00
2023-03-12T12:31:03.407Z,100.00
2023-03-12T12:33:48.185Z,100.00
2023-03-12T12:36:15.060Z,100.00
2023-03-12T12:38:54.286Z,100.00
2023-03-12T12:41:25.858Z,100.00
2023-03-12T12:44:12.162Z,100.00
2023-03-12T12:46:45.292Z,100.00
2023-03-12T12:49:19.600Z,100.00
2023-03-12T12:52:03.311Z,100.00
2023-03-12T12:54:48.406Z,100.00
2023-03-12T12:57:21.511Z,100.00
2023-03-12T13:00:10.975Z,100.00
2023-03-12T13:02:40.319Z,100.00
2023-03-12T13:05:42.449Z,100.00
2023-03-12T13:08:34.716Z,100.00
2023-03-12T13:11:23.422Z,100.00
2023-03-12T13:14:02.707Z,100.00
2023-03-12T13:16:37.977Z,100.00
2023-03-12T13:19:13.935Z,100.00
2023-03-12T13:21:50.831Z,100.00
2023-03-12T13:24:33.766Z,100.00
2023-03-12T13:27:09.886Z,100.00
2023-03-12T13:29:40.317Z,100.00
2023-03-12T13:32:34.789Z,100.00
2023-03-12T13:35:25.826Z,100.00
2023-03-12T13:37:59.727Z,100.00
2023-03-12T13:40:29.845Z,100.00
2023-03-12T13:43:14.441Z,100.00
2023-03-12T13:45:47.649Z,100.00
2023-03-12T13:48:17.453Z,100.00
2023-03-12T13:50:52.344Z,100.00
2023-03-12T13:53:28.200Z,100.00
2023-03-12T13:56:27.350Z,100.00
2023-03-12T13:59:05.586Z,100.00
2023-03-12T14:01:41.162Z,100.00
2023-03-12T14:04:12.853Z,100.00
2023-03-12T14:07:07.715Z,100.00
2023-03-12T14:10:12.155Z,100.00
2023-03-12T14:12:46.266Z,100.00
2023-03-12T14:15:24.015Z,100.00
2023-03-12T14:17:59.576Z,100.00
2023-03-12T14:20:26.917Z,100.00
2023-03-12T14:23:05.845Z,100.00
2023-03-12T14:25:38.243Z,100.00
2023-03-12T14:28:14.540Z,100.00
2023-03-12T14:30:44.064Z,100.00
2023-03-12T14:33:14.197Z,100.00
2023-03-12T14:35:47.611Z,100.00
2023-03-12T14:38:22.027Z,100.00
2023-03-12T14:41:13.634Z,100.00
2023-03-12T14:43:42.626Z,100.00
2023-03-12T14:46:21.350Z,100.00
2023-03-12T14:48:50.229Z,100.00
2023-03-12T14:51:27.902Z,100.00
2023-03-12T14:53:55.266Z,100.00
2023-03-12T14:56:24.256Z,100.00
2023-03-12T14:58:52.007Z,100.00
2023-03-12T15:01:24.347Z,100.00
2023-03-12T15:03:54.991Z,100.00
2023-03-12T15:06:36.937Z,100.00
2023-03-12T15:09:06.380Z,100.00
2023-03-12T15:11:37.524Z,100.00
2023-03-12T15:14:09.856Z,100.00
2023-03-12T15:16:36.971Z,100.00
2023-03-12T15:19:04.226Z,100.00
2023-03-12T15:21:35.365Z,100.00
2023-03-12T15:24:03.072Z,100.00
2023-03-12T15:26:33.131Z,100.00
2023-03-12T15:29:15.700Z,100.00
2023-03-12T15:31:44.644Z,100.00
2023-03-12T15:34:13.496Z,100.00
2023-03-12T15:36:48.576Z,100.00
2023-03-12T15:39:26.522Z,100.00
2023-03-12T15:41:54.874Z,100.00
2023-03-12T15:44:31.014Z,100.00
2023-03-12T15:47:07.975Z,100.00
2023-03-12T15:49:36.427Z,100.00
2023-03-12T15:52:18.364Z,100.00
2023-03-12T15:55:19.100Z,100.00
2023-03-12T15:57:54.131Z,100.00
2023-03-12T16:00:42.756Z,100.00
2023-03-12T16:03:17.210Z,100.00
2023-03-12T16:05:44.586Z,100.00
2023-03-12T16:08:18.873Z,100.00
2023-03-12T16:10:47.076Z,100.00
2023-03-12T16:13:16.006Z,100.00
2023-03-12T16:15:43.505Z,100.00
2023-03-12T16:18:15.808Z,100.00
2023-03-12T16:20:43.747Z,100.00
2023-03-12T16:23:11.155Z,100.00
2023-03-12T16:25:38.427Z,100.00
2023-03-12T16:28:06.499Z,100.00
2023-03-12T16:30:35.885Z,100.00
2023-03-12T16:33:08.642Z,100.00
2023-03-12T16:35:36.697Z,100.00
2023-03-12T16:38:03.782Z,100.00
2023-03-12T16:40:36.259Z,100.00
2023-03-12T16:43:06.135Z,100.00
2023-03-12T16:45:37.073Z,100.00
2023-03-12T16:48:05.731Z,100.00
2023-03-12T16:50:32.708Z,100.00
2023-03-12T16:53:00.694Z,100.00
2023-03-12T16:55:29.408Z,100.00
2023-03-12T16:58:01.571Z,100.00
2023-03-12T17:00:30.550Z,100.00
2023-03-12T17:02:58.149Z,100.00
2023-03-12T17:05:26.520Z,100.00
2023-03-12T17:07:54.703Z,100.00
2023-03-12T17:10:22.388Z,100.00
2023-03-12T17:12:49.970Z,100.00
2023-03-12T17:15:28.407Z,100.00
2023-03-12T17:17:55.750Z,100.00
2023-03-12T17:20:24.711Z,100.00
2023-03-12T17:22:51.398Z,100.00
2023-03-12T17:25:24.917Z,100.00
2023-03-12T17:27:52.236Z,100.00
2023-03-12T17:30:20.898Z,100.00
2023-03-12T17:32:48.006Z,100.00
2023-03-12T17:35:14.796Z,100.00
2023-03-12T17:37:41.591Z,100.00
2023-03-12T17:40:10.008Z,100.00
2023-03-12T17:42:37.603Z,100.00
2023-03-12T17:45:06.460Z,100.00
2023-03-12T17:47:33.264Z,100.00
2023-03-12T17:50:00.093Z,100.00
2023-03-12T17:52:26.956Z,100.00
2023-03-12T17:54:54.580Z,100.00
2023-03-12T17:57:21.302Z,100.00
2023-03-12T17:59:48.121Z,100.00
2023-03-12T18:02:14.920Z,100.00
2023-03-12T18:04:41.613Z,100.00
2023-03-12T18:07:08.607Z,100.00
2023-03-12T18:09:35.684Z,100.00
2023-03-12T18:12:02.547Z,100.00
2023-03-12T18:14:29.340Z,100.00
2023-03-12T18:16:56.100Z,100.00
2023-03-12T18:19:23.632Z,100.00
2023-03-12T18:21:50.396Z,100.00
2023-03-12T18:24:17.063Z,100.00
2023-03-12T18:26:45.318Z,100.00
2023-03-12T18:29:12.498Z,100.00
2023-03-12T18:31:39.556Z,100.00
2023-03-12T18:34:06.335Z,100.00
2023-03-12T18:36:33.079Z,100.00
2023-03-12T18:39:04.350Z,100.00
2023-03-12T18:41:32.868Z,100.00
2023-03-12T18:44:00.151Z,100.00
2023-03-12T18:46:27.374Z,100.00
2023-03-12T18:48:54.474Z,100.00
2023-03-12T18:51:21.291Z,100.00
2023-03-12T18:53:47.976Z,100.00
2023-03-12T18:56:14.823Z,100.00
2023-03-12T18:58:41.593Z,100.00
2023-03-12T19:01:08.389Z,100.00
2023-03-12T19:03:36.512Z,100.00
2023-03-12T19:06:08.843Z,100.00
2023-03-12T19:08:37.400Z,100.00
2023-03-12T19:11:05.671Z,100.00
2023-03-12T19:13:32.584Z,100.00
2023-03-12T19:16:05.417Z,100.00
2023-03-12T19:18:32.593Z,100.00
2023-03-12T19:20:59.361Z,100.00
2023-03-12T19:23:26.143Z,100.00
2023-03-12T19:25:52.891Z,100.00
2023-03-12T19:28:19.801Z,100.00
2023-03-12T19:30:46.736Z,100.00
2023-03-12T19:33:14.288Z,100.00
2023-03-12T19:35:41.937Z,100.00
2023-03-12T19:38:08.956Z,100.00
2023-03-12T19:40:35.832Z,100.00
2023-03-12T19:43:02.860Z,100.00
2023-03-12T19:45:29.758Z,100.00
2023-03-12T19:47:56.596Z,100.00
2023-03-12T19:50:24.190Z,100.00
2023-03-12T19:52:51.225Z,100.00
2023-03-12T19:55:18.001Z,100.00
2023-03-12T19:57:45.050Z,100.00
2023-03-12T20:00:12.460Z,100.00
2023-03-12T20:02:40.551Z,100.00
2023-03-12T20:05:08.802Z,100.00
2023-03-12T20:07:36.439Z,100.00
2023-03-12T20:10:03.558Z,100.00
2023-03-12T20:12:30.450Z,100.00
2023-03-12T20:14:57.263Z,100.00
2023-03-12T20:17:24.712Z,100.00
2023-03-12T20:19:51.709Z,100.00
2023-03-12T20:22:18.522Z,100.00
2023-03-12T20:24:45.245Z,100.00
2023-03-12T20:27:11.979Z,100.00
2023-03-12T20:29:38.825Z,100.00
2023-03-12T20:32:05.815Z,100.00
2023-03-12T20:34:32.592Z,100.00
2023-03-12T20:36:59.341Z,100.00
2023-03-12T20:39:26.291Z,100.00
2023-03-12T20:41:53.112Z,100.00
2023-03-12T20:44:19.864Z,100.00
2023-03-12T20:46:47.579Z,100.00
2023-03-12T20:49:14.969Z,100.00
2023-03-12T20:51:42.871Z,100.00
2023-03-12T20:54:09.645Z,100.00
2023-03-12T20:56:36.677Z,100.00
2023-03-12T20:59:03.465Z,100.00
2023-03-12T21:01:30.286Z,100.00
2023-03-12T21:03:57.899Z,100.00
2023-03-12T21:06:24.840Z,100.00
2023-03-12T21:08:56.320Z,100.00
2023-03-12T21:11:23.259Z,100.00
2023-03-12T21:13:50.110Z,100.00
2023-03-12T21:16:17.429Z,100.00
2023-03-12T21:18:44.272Z,100.00
2023-03-12T21:21:11.486Z,100.00
2023-03-12T21:23:38.844Z,100.00
2023-03-12T21:26:09.414Z,100.00
2023-03-12T21:28:36.507Z,100.00
2023-03-12T21:31:11.769Z,100.00
2023-03-12T21:33:39.066Z,100.00
2023-03-12T21:36:07.734Z,100.00
2023-03-12T21:38:35.816Z,100.00
2023-03-12T21:41:14.073Z,100.00
2023-03-12T21:43:42.101Z,100.00
2023-03-12T21:46:11.732Z,100.00
2023-03-12T21:48:39.370Z,100.00
2023-03-12T21:51:11.352Z,100.00
2023-03-12T21:53:39.079Z,100.00
2023-03-12T21:56:07.532Z,100.00
2023-03-12T21:58:35.574Z,100.00
2023-03-12T22:01:07.210Z,100.00
2023-03-12T22:03:34.672Z,100.00
2023-03-12T22:06:01.781Z,100.00
2023-03-12T22:08:42.989Z,100.00
2023-03-12T22:11:28.516Z,100.00
2023-03-12T22:14:20.686Z,100.00
2023-03-12T22:16:47.627Z,100.00
2023-03-12T22:19:14.458Z,100.00
2023-03-12T22:21:42.811Z,100.00
2023-03-12T22:24:10.618Z,100.00
2023-03-12T22:26:38.541Z,100.00
2023-03-12T22:29:07.151Z,100.00
2023-03-12T22:31:34.094Z,100.00
2023-03-12T22:34:05.700Z,100.00
2023-03-12T22:36:49.884Z,100.00
2023-03-12T22:39:34.724Z,100.00
2023-03-12T22:42:25.156Z,100.00
2023-03-12T22:45:08.532Z,100.00
2023-03-12T22:47:35.720Z,100.00
2023-03-12T22:50:02.554Z,100.00
2023-03-12T22:52:29.428Z,100.00
2023-03-12T22:54:56.215Z,100.00
2023-03-12T22:57:23.731Z,100.00
2023-03-12T22:59:50.831Z,100.00
2023-03-12T23:02:24.429Z,100.00
2023-03-12T23:04:51.437Z,100.00
2023-03-12T23:07:29.634Z,100.00
2023-03-12T23:10:12.680Z,100.00
2023-03-12T23:13:02.313Z,100.00
2023-03-12T23:15:41.125Z,100.00
2023-03-12T23:18:11.887Z,100.00
2023-03-12T23:20:39.339Z,100.00
2023-03-12T23:23:06.252Z,100.00
2023-03-12T23:25:33.641Z,100.00
2023-03-12T23:28:02.788Z,100.00
2023-03-12T23:30:29.998Z,100.00
2023-03-12T23:32:57.097Z,100.00
2023-03-12T23:35:24.088Z,100.00
2023-03-12T23:37:56.719Z,100.00
2023-03-12T23:40:23.580Z,100.00
2023-03-12T23:42:50.675Z,100.00
2023-03-12T23:45:17.502Z,100.00
2023-03-12T23:47:47.212Z,100.00
2023-03-12T23:50:14.232Z,100.00
2023-03-12T23:52:41.225Z,100.00
2023-03-12T23:55:08.482Z,100.00
2023-03-12T23:57:35.282Z,100.00
